Eprise, Alabama
Current Conditions -  °F | °C
As of 12:35 AM on Saturday 20 Dec 2014 (Local Time) from KEDN Reporting Station
Drizzle Drizzle  
Wind Chill:   Ceiling: 2000
Heat Index:   Visibility: 5mi
Dew Point:   Wind: 3mph
Humidity: 100%   Direction: 40°NE
Pressure: 30.11"   Gusts: NA
Location:  31.3153°N, 85.8554°W
Report Text: KEDN 200635Z AUTO 04003KT 5SM -DZ SCT006 OVC020 07/07 A3011 RMK AO2
Loading
Personal Weather Stations






























Interactive Weather Map New forecast layout! Learn more

10-Day Weather Forecast

Advertisements
Track Severe Weather on mobile